Flight Track Log - Related Links

Times and Time Zones

All times are in EDT time to prevent confusion due to time zone crossing. See the DAL571 flight status page for this flight to view local times or setup timezone preferences in your user account.

Time Position Orientation Groundspeed Altitude Reporting Facility
EDT Latitude Longitude Course Direction KTS MPH feet Rate Location/Type
Sat 10:08:17 AM 33.6333 -84.3833 145° Southeast 170 196 2,300  Level Atlanta TRACON
Sat 10:09:17 AM 33.6167 -84.3167 107° East 244 281 4,400 2,450 Climbing Atlanta TRACON
Sat 10:10:00 AM 33.3516 -84.2348 140° Southeast  Level FlightAware
Sat 10:10:17 AM 33.5667 -84.2833 151° Southeast 261 300 7,200  Level Atlanta TRACON
Sat 10:11:00 AM 33.2513 -84.1344 140° Southeast  Level FlightAware
Sat 10:12:00 AM 33.1510 -84.0342 140° Southeast  Level FlightAware
Sat 10:12:29 AM 33.3850 -84.2703 177° South 298 343 12,300  Level Atlanta Center
Sat 10:13:00 AM 33.0531 -83.9414 145° Southeast  Level FlightAware
Sat 10:13:29 AM 33.3142 -84.2078 144° Southeast 325 374 13,100  Level Atlanta Center
Sat 10:14:29 AM 33.2264 -84.1183 140° Southeast 393 452 15,400 2,250 Climbing Atlanta Center
Sat 10:15:29 AM 33.1367 -84.0264 139° Southeast 408 470 17,600 1,900 Climbing Atlanta Center
Sat 10:16:29 AM 33.0322 -83.9297 142° Southeast 418 481 19,200 1,700 Climbing Atlanta Center
Sat 10:17:29 AM 32.9278 -83.8458 146° Southeast 437 503 21,000 1,800 Climbing Atlanta Center
Sat 10:18:29 AM 32.8211 -83.7594 146° Southeast 460 529 22,800 1,545 Climbing Atlanta Center
Sat 10:20:16 AM 32.6406 -83.5981 143° Southeast 497 572 25,300 1,401 Climbing Jacksonville Center
Sat 10:21:16 AM 32.5367 -83.4939 140° Southeast 503 579 26,700 1,400 Climbing Jacksonville Center
Sat 10:22:16 AM 32.4328 -83.3897 140° Southeast 503 579 28,100 1,500 Climbing Jacksonville Center
Sat 10:23:16 AM 32.3247 -83.2833 140° Southeast 503 579 29,700 1,450 Climbing Jacksonville Center
Sat 10:24:16 AM 32.2183 -83.1775 140° Southeast 498 573 31,000 1,350 Climbing Jacksonville Center
Sat 10:25:16 AM 32.1036 -83.0936 148° Southeast 492 566 32,400 1,450 Climbing Jacksonville Center
Sat 10:26:16 AM 31.9869 -83.0078 148° Southeast 492 566 33,900 1,300 Climbing Jacksonville Center
Sat 10:27:16 AM 31.8764 -82.9244 147° Southeast 486 559 35,000 1,000 Climbing Jacksonville Center
Sat 10:28:16 AM 31.7614 -82.8411 148° Southeast 486 559 35,900 500 Climbing Jacksonville Center
Sat 10:29:16 AM 31.6486 -82.7583 148° Southeast 486 559 36,000 50 Climbing Jacksonville Center
Sat 10:30:16 AM 31.5358 -82.6733 147° Southeast 486 559 36,000  Level Jacksonville Center
Sat 10:31:16 AM 31.4167 -82.5883 149° Southeast 486 559 36,000  Level Jacksonville Center
Sat 10:32:16 AM 31.3017 -82.5108 150° Southeast 486 559 36,000  Level Jacksonville Center
Sat 10:33:16 AM 31.1864 -82.4264 148° Southeast 486 559 36,000  Level Jacksonville Center
Sat 10:34:16 AM 31.0672 -82.3444 149° Southeast 486 559 36,000  Level Jacksonville Center
Sat 10:35:16 AM 30.9539 -82.2603 148° Southeast 491 565 36,000  Level Jacksonville Center
Sat 10:36:16 AM 30.8367 -82.1789 149° Southeast 491 565 36,000  Level Jacksonville Center
Sat 10:37:16 AM 30.7214 -82.0975 149° Southeast 491 565 36,000  Level Jacksonville Center
Sat 10:38:16 AM 30.6058 -82.0164 149° Southeast 491 565 36,000  Level Jacksonville Center
Sat 10:39:16 AM 30.4925 -81.9306 147° Southeast 497 572 36,000  Level Jacksonville Center
Sat 10:40:16 AM 30.3728 -81.8475 149° Southeast 497 572 36,000  Level Jacksonville Center
Sat 10:41:16 AM 30.2406 -81.7578 150° Southeast 498 573 36,000  Level Jacksonville Center
Sat 10:42:16 AM 30.1250 -81.6797 150° Southeast 498 573 36,000  Level Jacksonville Center
Sat 10:43:16 AM 30.0156 -81.5853 143° Southeast 498 573 36,000  Level Jacksonville Center
Sat 10:44:16 AM 29.9225 -81.4642 132° Southeast 490 564 36,000  Level Jacksonville Center
Sat 10:45:16 AM 29.8269 -81.3436 132° Southeast 490 564 36,000  Level Jacksonville Center
Sat 10:46:16 AM 29.7358 -81.2256 132° Southeast 501 577 36,000  Level Jacksonville Center
Sat 10:47:16 AM 29.6403 -81.1053 132° Southeast 501 577 36,000  Level Jacksonville Center
Sat 10:48:16 AM 29.5467 -80.9828 131° Southeast 508 585 36,000  Level Jacksonville Center
Sat 10:49:16 AM 29.4550 -80.8653 132° Southeast 508 585 36,000  Level Jacksonville Center
Sat 10:50:16 AM 29.3633 -80.7481 132° Southeast 508 585 36,000  Level Jacksonville Center
Sat 10:51:03 AM 29.2831 -80.6606 136° Southeast 523 602 36,000 449 Level Miami Center
Sat 10:52:03 AM 29.1942 -80.5433 131° Southeast 528 608 36,800 500 Climbing Miami Center
Sat 10:53:03 AM 29.0992 -80.4286 133° Southeast 507 583 37,000 100 Climbing Miami Center
Sat 10:54:03 AM 29.0081 -80.3117 132° Southeast 500 575 37,000  Level Miami Center
Sat 10:55:03 AM 28.9131 -80.1925 132° Southeast 500 575 37,000  Level Miami Center
Sat 10:56:03 AM 28.8175 -80.0758 133° Southeast 500 575 37,000  Level Miami Center
Sat 10:57:03 AM 28.7264 -79.9597 132° Southeast 500 575 37,000  Level Miami Center
Sat 10:58:03 AM 28.6306 -79.8436 133° Southeast 500 575 37,000  Level Miami Center
Sat 10:59:03 AM 28.5350 -79.7253 133° Southeast 500 575 37,000  Level Miami Center
Sat 11:00:03 AM 28.4414 -79.6094 133° Southeast 500 575 37,000  Level Miami Center
Sat 11:01:03 AM 28.3494 -79.4964 133° Southeast 500 575 37,000  Level Miami Center
Sat 11:02:03 AM 28.2556 -79.3811 133° Southeast 500 575 37,000  Level Miami Center
Sat 11:03:03 AM 28.1594 -79.2658 133° Southeast 500 575 37,000  Level Miami Center
Sat 11:04:03 AM 28.0672 -79.1533 133° Southeast 495 570 37,000  Level Miami Center
Sat 11:05:03 AM 27.9731 -79.0383 133° Southeast 495 570 37,000  Level Miami Center
Sat 11:06:03 AM 27.8972 -78.9478 133° Southeast 495 570 37,000  Level Miami Center
Sat 11:07:03 AM 27.7925 -78.8236 134° Southeast 490 564 37,000  Level Miami Center
Sat 11:08:03 AM 27.6875 -78.7000 134° Southeast 490 564 37,000  Level Miami Center
Sat 11:09:03 AM 27.6056 -78.5792 127° Southeast 490 564 37,000  Level Miami Center
Sat 11:10:03 AM 27.5256 -78.4492 125° Southeast 495 570 37,000  Level Miami Center
Sat 11:11:03 AM 27.4558 -78.3194 121° Southeast 495 570 37,000  Level Miami Center
Sat 11:12:03 AM 27.3800 -78.1875 123° Southeast 495 570 37,000  Level Miami Center
Sat 11:13:03 AM 27.3017 -78.0650 126° Southeast 495 570 37,000  Level Miami Center
Sat 11:14:03 AM 27.2253 -77.9356 124° Southeast 495 570 37,000  Level Miami Center
Sat 11:15:03 AM 27.1489 -77.8089 124° Southeast 494 568 37,000  Level Miami Center
Sat 11:16:03 AM 27.0725 -77.6800 124° Southeast 503 579 37,000  Level Miami Center
Sat 11:17:03 AM 26.9958 -77.5419 122° Southeast 503 579 37,000  Level Miami Center
Sat 11:18:03 AM 26.9211 -77.4203 125° Southeast 493 567 37,000  Level Miami Center
Sat 11:19:03 AM 26.8442 -77.2894 123° Southeast 492 566 37,000  Level Miami Center
Sat 11:20:03 AM 26.7672 -77.1589 123° Southeast 492 566 37,000  Level Miami Center
Sat 11:21:03 AM 26.6903 -77.0261 123° Southeast 492 566 37,000  Level Miami Center
Sat 11:22:03 AM 26.6172 -76.9053 124° Southeast 492 566 37,000  Level Miami Center
Sat 11:23:03 AM 26.5378 -76.7750 124° Southeast 490 564 37,000  Level Miami Center
Sat 11:24:03 AM 26.4583 -76.6475 125° Southeast 495 570 37,000  Level Miami Center
Sat 11:25:03 AM 26.3869 -76.5269 123° Southeast 486 559 37,000  Level Miami Center
Sat 11:26:03 AM 26.3072 -76.3997 125° Southeast 486 559 37,000  Level Miami Center
Sat 11:27:03 AM 26.2294 -76.2703 124° Southeast 491 565 37,000  Level Miami Center
Sat 11:28:03 AM 26.1536 -76.1433 124° Southeast 485 558 37,000  Level Miami Center
Sat 11:29:03 AM 26.0819 -76.0233 124° Southeast 485 558 37,000  Level Miami Center
Sat 11:30:03 AM 25.9997 -75.8944 125° Southeast 490 564 37,000  Level Miami Center
Sat 11:31:03 AM 25.9214 -75.7681 125° Southeast 490 564 37,000  Level Miami Center
Sat 11:32:03 AM 25.8453 -75.6442 124° Southeast 490 564 37,000  Level Miami Center
Sat 11:33:03 AM 25.7667 -75.5181 125° Southeast 485 558 37,000  Level Miami Center
Sat 11:34:03 AM 25.6906 -75.4014 126° Southeast 485 558 37,000  Level Miami Center
Sat 11:35:03 AM 25.6117 -75.2708 124° Southeast 485 558 37,000  Level Miami Center
Sat 11:36:03 AM 25.5331 -75.1497 126° Southeast 496 571 37,000  Level Miami Center
Sat 11:37:03 AM 25.4542 -75.0222 124° Southeast 496 571 37,000  Level Miami Center
Sat 11:38:03 AM 25.3775 -74.8992 125° Southeast 490 564 37,000  Level Miami Center
Sat 11:39:03 AM 25.2983 -74.7739 125° Southeast 490 564 37,000  Level Miami Center
Sat 11:40:03 AM 25.2214 -74.6511 125° Southeast 490 564 37,000  Level Miami Center
Sat 11:41:03 AM 25.1419 -74.5242 125° Southeast 490 564 37,000  Level Miami Center
Sat 11:42:03 AM 25.0628 -74.3994 125° Southeast 490 564 37,000  Level Miami Center
Sat 11:43:03 AM 24.9875 -74.2819 125° Southeast 490 564 37,000  Level Miami Center
Sat 11:44:03 AM 24.9058 -74.1553 125° Southeast 490 564 37,000  Level Miami Center
Sat 11:45:03 AM 24.8261 -74.0289 125° Southeast 490 564 37,000  Level Miami Center
Sat 11:46:03 AM 24.7486 -73.9094 126° Southeast 485 558 37,000  Level Miami Center
Sat 11:47:03 AM 24.6708 -73.7833 124° Southeast 491 565 37,000  Level Miami Center
Sat 11:48:03 AM 24.5911 -73.6617 126° Southeast 491 565 37,000  Level Miami Center
Sat 11:49:03 AM 24.5108 -73.5361 125° Southeast 491 565 37,000  Level Miami Center
Sat 11:50:03 AM 24.4350 -73.4147 124° Southeast 491 565 37,000  Level Miami Center
Sat 11:51:03 AM 24.3614 -73.2983 125° Southeast 481 554 37,000  Level Miami Center
Sat 11:52:03 AM 24.2725 -73.1733 128° Southeast 487 560 37,000  Level Miami Center
Sat 11:53:03 AM 24.1922 -73.0481 125° Southeast 495 570 37,000  Level Miami Center
Sat 11:54:03 AM 24.1139 -72.9275 125° Southeast 495 570 37,000  Level Miami Center
Sat 11:55:03 AM 24.0353 -72.8050 125° Southeast 490 564 37,000  Level Miami Center
Sat 11:56:03 AM 23.9572 -72.6983 129° Southeast 495 570 37,000  Level Miami Center
Sat 11:57:03 AM 23.8828 -72.5761 124° Southeast 489 563 37,000  Level Miami Center
Sat 11:58:03 AM 23.7933 -72.4453 127° Southeast 495 570 37,000  Level Miami Center
Sat 11:59:03 AM 23.7142 -72.3208 125° Southeast 490 564 37,000  Level Miami Center
Sat 12:00:03 PM 23.6314 -72.2014 127° Southeast 495 570 37,000  Level Miami Center
Sat 12:01:03 PM 23.5503 -72.0800 126° Southeast 495 570 37,000 300 Level Miami Center
Sat 12:02:03 PM 23.4711 -71.9583 125° Southeast 488 562 37,600 500 Climbing Miami Center
Sat 12:03:03 PM 23.3897 -71.8372 126° Southeast 488 562 38,000 200 Climbing Miami Center
Sat 12:04:03 PM 23.3083 -71.7161 126° Southeast 494 568 38,000  Level Miami Center
Sat 12:05:03 PM 23.2292 -71.5972 126° Southeast 489 563 38,000  Level Miami Center
Sat 12:06:03 PM 23.1478 -71.4764 126° Southeast 494 568 38,000  Level Miami Center
Sat 12:07:03 PM 23.0636 -71.3492 126° Southeast 494 568 38,000  Level Miami Center
Sat 12:08:03 PM 22.9822 -71.2308 127° Southeast 500 575 38,000  Level Miami Center
Sat 12:09:03 PM 22.9092 -71.1236 126° Southeast 500 575 38,000  Level Miami Center
Sat 12:10:03 PM 22.8253 -71.0036 127° Southeast 500 575 38,000  Level Miami Center
Sat 12:11:03 PM 22.7433 -70.8814 126° Southeast 500 575 38,000  Level Miami Center
Sat 12:12:03 PM 22.6611 -70.7592 126° Southeast 500 575 38,000 100 Level Miami Center
Sat 12:13:03 PM 22.5769 -70.6372 127° Southeast 506 582 38,200 350 Climbing Miami Center
Sat 12:14:03 PM 22.4947 -70.5156 126° Southeast 506 582 38,700 400 Climbing Miami Center
Sat 12:15:03 PM 22.4083 -70.3942 128° Southeast 506 582 39,000 150 Climbing Miami Center
Sat 12:16:03 PM 22.3258 -70.2728 126° Southeast 512 589 39,000  Level Miami Center
Sat 12:17:03 PM 22.2392 -70.1517 128° Southeast 512 589 39,000  Level Miami Center
Sat 12:18:03 PM 22.1544 -70.0283 127° Southeast 512 589 39,000  Level Miami Center
Sat 12:19:03 PM 22.0697 -69.9075 127° Southeast 512 589 39,000  Level Miami Center
Sat 12:20:03 PM 21.9869 -69.7867 126° Southeast 507 583 39,000  Level Miami Center
Sat 12:21:03 PM 21.9000 -69.6661 128° Southeast 512 589 39,000  Level Miami Center
Sat 12:22:03 PM 21.8128 -69.5414 127° Southeast 517 595 39,000  Level Miami Center
Sat 12:23:03 PM 21.7256 -69.4192 128° Southeast 517 595 39,000  Level Miami Center
Sat 12:24:03 PM 21.6406 -69.2989 127° Southeast 510 587 39,000  Level Miami Center
Sat 12:25:03 PM 21.5511 -69.1772 128° Southeast 515 593 39,000  Level Miami Center
Sat 12:26:03 PM 21.4678 -69.0550 126° Southeast 515 593 39,000  Level Miami Center
Sat 12:27:03 PM 21.3825 -68.9331 127° Southeast 515 593 39,000  Level Miami Center
Sat 12:28:03 PM 21.2950 -68.8139 128° Southeast 515 593 39,000  Level Miami Center
Sat 12:29:03 PM 21.2075 -68.6925 128° Southeast 515 593 39,000  Level Miami Center
Sat 12:30:03 PM 21.1197 -68.5736 128° Southeast 515 593 39,000  Level Miami Center
Sat 12:31:03 PM 21.0361 -68.4522 126° Southeast 515 593 39,000  Level Miami Center
Sat 12:32:03 PM 20.9486 -68.3336 128° Southeast 515 593 39,000  Level Miami Center
Sat 12:33:03 PM 20.8581 -68.2042 127° Southeast 515 593 39,000  Level Miami Center
Sat 12:34:03 PM 20.7750 -68.0989 130° Southeast 515 593 39,000  Level Miami Center
Sat 12:35:03 PM 20.6914 -67.9825 128° Southeast 509 586 39,000  Level Miami Center
Sat 12:36:03 PM 20.5828 -67.8636 134° Southeast 502 578 39,000  Level Miami Center
Sat 12:37:03 PM 20.5072 -67.7450 124° Southeast 502 578 39,000  Level Miami Center
Sat 12:38:03 PM 20.4192 -67.6294 129° Southeast 502 578 39,000  Level Miami Center
Sat 12:38:41 PM 20.3667 -67.5500 125° Southeast 500 575 39,000  Level San Center
Sat 12:39:41 PM 20.2833 -67.4333 127° Southeast 500 575 39,000  Level San Center
Sat 12:40:41 PM 20.2000 -67.3167 127° Southeast 490 564 39,000  Level San Center
Sat 12:41:42 PM 20.1167 -67.2167 132° Southeast 500 575 39,000  Level San Center
Sat 12:42:42 PM 20.0167 -67.1000 132° Southeast 490 564 39,000  Level San Center
Sat 12:43:42 PM 19.9333 -66.9833 127° Southeast 500 575 39,000  Level San Center
Sat 12:44:42 PM 19.8500 -66.8667 127° Southeast 490 564 39,000  Level San Center
Sat 12:45:43 PM 19.7667 -66.7500 127° Southeast 490 564 39,000  Level San Center
Sat 12:46:43 PM 19.6667 -66.6500 137° Southeast 490 564 39,000 -550 Level San Center
Sat 12:47:43 PM 19.5833 -66.5333 127° Southeast 490 564 37,900 -2,182 Descending San Center
Sat 12:48:44 PM 19.5000 -66.4167 127° Southeast 510 587 34,600 -2,975 Descending San Center
Sat 12:49:44 PM 19.4000 -66.3000 132° Southeast 520 598 31,900 -2,900 Descending San Center
Sat 12:50:44 PM 19.3167 -66.1833 127° Southeast 520 598 28,800 -3,124 Descending San Center
Sat 12:51:45 PM 19.2167 -66.0667 132° Southeast 510 587 25,600 -2,826 Descending San Center
Sat 12:52:45 PM 19.1333 -65.9500 127° Southeast 500 575 23,100 -2,750 Descending San Center
Sat 12:53:45 PM 19.0500 -65.8333 127° Southeast 470 541 20,100 -2,727 Descending San Center
Sat 12:54:46 PM 18.9667 -65.7333 131° Southeast 450 518 17,600 -2,380 Descending San Center
Sat 12:55:46 PM 18.8833 -65.6333 131° Southeast 430 495 15,300 -2,350 Descending San Center
Sat 12:56:46 PM 18.8167 -65.5500 130° Southeast 410 472 12,900 -1,835 Descending San Center
Sat 12:57:47 PM 18.7500 -65.4500 125° Southeast 380 437 11,600 -1,091 Descending San Center
Sat 12:58:47 PM 18.6667 -65.3833 143° Southeast 330 380 10,700 -1,500 Descending San Center
Sat 12:59:47 PM 18.6000 -65.3500 155° Southeast 300 345 8,600 -1,934 Descending San Center
Sat 01:00:48 PM 18.5333 -65.3000 145° Southeast 270 311 6,800 -1,438 Descending San Center
Sat 01:01:48 PM 18.4667 -65.2667 155° Southeast 260 299 5,700 -750 Descending San Center
Sat 01:02:48 PM 18.4167 -65.2333 148° Southeast 200 230 5,300 -650 Descending San Center
Sat 01:03:48 PM 18.3833 -65.2000 136° Southeast 180 207 4,400 -950 Descending San Center
Sat 01:04:48 PM 18.3667 -65.1500 109° East 180 207 3,400 -1,000 Descending San Center

Login

Don't have an account? Register now (free) for customized features, flight alerts, and more!